Time;durP1;ratioP1;P1;durP2;ratioP2;P2;SDS_P1;SDS_P2;PMS_P1;PMS_P2;Temp;Humidity;BMP_temperature;BMP_pressure;BME280_temperature;BME280_humidity;BME280_pressure;Samples;Min_cycle;Max_cycle;Signal;HPM_P1;HPM_P2
2023/01/19 00:00:35;;;;;;;0.10;0.10;;;;;;;-1.21;100.00;99456.41;6181009;23;20143;-76
2023/01/19 00:03:03;;;;;;;0.00;0.00;;;;;;;-1.20;100.00;99452.69;6185637;23;20039;-75
2023/01/19 00:05:28;;;;;;;0.10;0.10;;;;;;;-1.20;100.00;99448.13;6207003;23;20004;-74
2023/01/19 00:07:54;;;;;;;0.10;0.10;;;;;;;-1.24;100.00;99447.75;6210447;23;20020;-74
2023/01/19 00:10:19;;;;;;;0.10;0.10;;;;;;;-1.29;100.00;99449.41;6210725;23;20012;-74
2023/01/19 00:12:45;;;;;;;0.10;0.10;;;;;;;-1.30;100.00;99442.41;6208286;23;20024;-74
2023/01/19 00:15:11;;;;;;;0.03;0.03;;;;;;;-1.35;100.00;99443.03;6160219;23;20082;-74
2023/01/19 00:17:36;;;;;;;0.10;0.10;;;;;;;-1.38;100.00;99448.81;6206709;23;20010;-75
2023/01/19 00:20:02;;;;;;;0.10;0.10;;;;;;;-1.47;100.00;99447.44;6211816;23;20379;-74
2023/01/19 00:22:28;;;;;;;0.00;0.00;;;;;;;-1.55;100.00;99445.78;6205505;23;20083;-75
2023/01/19 00:24:53;;;;;;;0.10;0.10;;;;;;;-1.51;100.00;99454.25;6185787;23;20458;-74
2023/01/19 00:27:19;;;;;;;0.08;0.08;;;;;;;-1.54;100.00;99446.63;6213334;23;20091;-74
2023/01/19 00:29:44;;;;;;;0.00;0.00;;;;;;;-1.60;100.00;99449.09;6206772;23;20083;-75
2023/01/19 00:32:10;;;;;;;0.00;0.00;;;;;;;-1.62;100.00;99432.41;6184796;23;20004;-74
2023/01/19 00:34:35;;;;;;;0.10;0.10;;;;;;;-1.56;100.00;99436.09;6209120;23;20021;-75
2023/01/19 00:37:10;;;;;;;0.00;0.00;;;;;;;-1.55;100.00;99437.72;6181131;23;20312;-74
2023/01/19 00:39:36;;;;;;;0.10;0.10;;;;;;;-1.59;100.00;99433.84;6210259;23;20008;-74
2023/01/19 00:44:46;;;;;;;0.10;0.10;;;;;;;-1.69;100.00;99431.59;6211625;23;20092;-75
2023/01/19 00:47:11;;;;;;;0.00;0.00;;;;;;;-1.77;100.00;99426.44;6156048;23;20032;-74
2023/01/19 00:49:37;;;;;;;0.10;0.10;;;;;;;-1.81;100.00;99438.63;6209531;23;20059;-74
2023/01/19 00:52:02;;;;;;;0.00;0.00;;;;;;;-1.86;100.00;99431.22;6206290;23;20870;-73
2023/01/19 00:54:28;;;;;;;0.10;0.10;;;;;;;-1.89;100.00;99433.50;6212471;23;20307;-74
2023/01/19 00:56:53;;;;;;;0.10;0.10;;;;;;;-1.96;100.00;99439.69;6182317;23;20091;-74
2023/01/19 00:59:18;;;;;;;0.10;0.10;;;;;;;-1.92;100.00;99437.41;6185082;23;20016;-74
2023/01/19 01:01:44;;;;;;;0.00;0.00;;;;;;;-1.88;100.00;99441.31;6209712;23;20389;-73
2023/01/19 01:04:12;;;;;;;0.10;0.10;;;;;;;-1.87;100.00;99432.25;6205067;23;20091;-74
2023/01/19 01:06:37;;;;;;;0.10;0.10;;;;;;;-1.84;100.00;99436.38;6160685;23;20016;-74
2023/01/19 01:09:10;;;;;;;0.10;0.10;;;;;;;-1.88;100.00;99429.75;6204097;23;20094;-74
2023/01/19 01:11:37;;;;;;;0.10;0.10;;;;;;;-1.86;100.00;99428.53;6191264;23;20032;-75
2023/01/19 01:14:02;;;;;;;0.10;0.10;;;;;;;-1.86;100.00;99427.72;6206976;23;20004;-75
2023/01/19 01:16:28;;;;;;;0.10;0.10;;;;;;;-1.82;100.00;99428.94;6209781;23;20005;-74
2023/01/19 01:18:53;;;;;;;0.00;0.00;;;;;;;-1.82;100.00;99428.94;6184901;23;20024;-75
2023/01/19 01:21:19;;;;;;;0.10;0.10;;;;;;;-1.81;100.00;99425.22;6157932;23;20009;-74
2023/01/19 01:23:44;;;;;;;0.10;0.10;;;;;;;-1.83;100.00;99435.34;6185402;23;20023;-76
2023/01/19 01:26:09;;;;;;;0.00;0.00;;;;;;;-1.87;100.00;99434.09;6181048;23;20327;-75
2023/01/19 01:28:35;;;;;;;0.10;0.10;;;;;;;-1.90;100.00;99434.53;6185146;23;20012;-75
2023/01/19 01:31:00;;;;;;;0.00;0.00;;;;;;;-1.87;100.00;99431.44;6182297;23;20005;-75
2023/01/19 01:33:26;;;;;;;0.10;0.10;;;;;;;-1.91;100.00;99435.53;6159350;23;20029;-75
2023/01/19 01:35:51;;;;;;;0.00;0.00;;;;;;;-1.98;100.00;99435.56;6209584;23;20671;-74
2023/01/19 01:38:17;;;;;;;0.10;0.10;;;;;;;-2.05;100.00;99442.78;6206978;23;20087;-75
2023/01/19 01:40:42;;;;;;;0.00;0.00;;;;;;;-2.12;100.00;99446.31;6184134;23;20435;-75
2023/01/19 01:43:16;;;;;;;0.10;0.10;;;;;;;-2.19;100.00;99448.16;6184838;23;20773;-75
2023/01/19 01:45:41;;;;;;;0.10;0.10;;;;;;;-2.19;100.00;99448.16;6208324;23;20163;-75
2023/01/19 01:48:13;;;;;;;0.10;0.10;;;;;;;-2.17;100.00;99461.34;6210024;23;20443;-75
2023/01/19 01:53:38;;;;;;;0.10;0.10;;;;;;;-2.07;100.00;99453.72;6207502;23;20012;-74
2023/01/19 01:56:09;;;;;;;0.00;0.00;;;;;;;-2.02;100.00;99455.78;6209992;23;20001;-75
2023/01/19 01:58:35;;;;;;;0.00;0.00;;;;;;;-2.07;100.00;99459.06;6206099;23;20079;-75
2023/01/19 02:03:45;;;;;;;0.10;0.10;;;;;;;-2.03;100.00;99460.31;6187648;23;20383;-75
2023/01/19 02:06:12;;;;;;;0.00;0.00;;;;;;;-1.96;100.00;99466.50;6160179;23;20008;-74
2023/01/19 02:14:21;;;;;;;0.10;0.10;;;;;;;-2.07;100.00;99480.50;6208759;23;20066;-75
2023/01/19 02:16:47;;;;;;;0.10;0.10;;;;;;;-2.14;100.00;99479.69;6208249;23;20012;-75
2023/01/19 02:19:17;;;;;;;0.00;0.00;;;;;;;-2.19;100.00;99476.78;6181924;23;20060;-75
2023/01/19 02:21:54;;;;;;;0.10;0.10;;;;;;;-2.21;100.00;99478.84;6208676;23;20372;-75
2023/01/19 02:24:20;;;;;;;0.10;0.10;;;;;;;-2.17;100.00;99472.06;6205778;23;20115;-75
2023/01/19 02:26:47;;;;;;;0.10;0.10;;;;;;;-2.18;100.00;99473.91;6208592;23;20066;-75
2023/01/19 02:29:16;;;;;;;0.10;0.10;;;;;;;-2.13;100.00;99486.69;6212649;23;20110;-76
2023/01/19 02:31:42;;;;;;;0.00;0.00;;;;;;;-2.26;100.00;99451.84;6211891;23;20088;-75
2023/01/19 02:34:09;;;;;;;0.00;0.00;;;;;;;-2.14;100.00;99482.38;6215411;23;20021;-76
2023/01/19 02:36:57;;;;;;;0.00;0.00;;;;;;;-2.11;100.00;99476.59;6202230;23;20028;-76
2023/01/19 02:39:28;;;;;;;0.10;0.10;;;;;;;-2.10;100.00;99480.94;6207984;23;20412;-76
2023/01/19 02:42:02;;;;;;;0.10;0.10;;;;;;;-2.09;100.00;99481.75;6203694;23;20416;-75
2023/01/19 02:44:29;;;;;;;0.10;0.10;;;;;;;-2.13;100.00;99475.97;6208824;23;20007;-76
2023/01/19 02:46:55;;;;;;;0.00;0.00;;;;;;;-2.14;100.00;99479.69;6204017;23;20008;-74
2023/01/19 02:49:20;;;;;;;0.00;0.00;;;;;;;-2.16;100.00;99479.88;6208511;23;20074;-76
2023/01/19 02:51:46;;;;;;;0.10;0.10;;;;;;;-2.27;100.00;99459.06;6203007;23;20008;-75
2023/01/19 02:54:33;;;;;;;0.00;0.00;;;;;;;-2.07;100.00;99483.19;6210405;23;20008;-75
2023/01/19 02:57:17;;;;;;;0.10;0.10;;;;;;;-2.08;100.00;99484.22;6204150;23;20091;-76
2023/01/19 02:59:58;;;;;;;0.05;0.05;;;;;;;-2.12;100.00;99482.97;6208698;23;20000;-75
2023/01/19 03:02:42;;;;;;;0.00;0.00;;;;;;;-2.16;100.00;99489.75;6202258;23;20412;-74
2023/01/19 03:05:48;;;;;;;0.00;0.00;;;;;;;-2.19;100.00;99482.13;6207872;23;20012;-75
2023/01/19 03:08:29;;;;;;;0.05;0.05;;;;;;;-2.18;100.00;99478.44;6205740;23;20230;-75
2023/01/19 03:11:06;;;;;;;0.00;0.00;;;;;;;-2.21;100.00;99476.19;6203816;23;19997;-75
2023/01/19 03:13:51;;;;;;;0.10;0.10;;;;;;;-2.22;100.00;99480.72;6208367;23;20008;-75
2023/01/19 03:16:39;;;;;;;0.10;0.10;;;;;;;-2.20;100.00;99480.50;6204531;23;20086;-76
2023/01/19 03:19:38;;;;;;;0.00;0.00;;;;;;;-2.18;100.00;99481.13;6196745;23;20407;-77
2023/01/19 03:22:12;;;;;;;0.00;0.00;;;;;;;-2.13;100.00;99476.81;6210378;23;20012;-76
2023/01/19 03:24:40;;;;;;;0.10;0.10;;;;;;;-2.09;100.00;99471.84;6206114;23;20364;-75
2023/01/19 03:27:12;;;;;;;0.00;0.00;;;;;;;-2.15;100.00;99467.31;6211549;23;19996;-75
2023/01/19 03:29:41;;;;;;;0.10;0.10;;;;;;;-2.15;100.00;99467.31;6205718;23;20087;-75
2023/01/19 03:32:11;;;;;;;0.10;0.10;;;;;;;-2.14;100.00;99474.31;6207939;23;20323;-75
2023/01/19 03:34:39;;;;;;;0.10;0.10;;;;;;;-2.11;100.00;99476.59;6204419;23;20020;-74
2023/01/19 03:37:09;;;;;;;0.00;0.00;;;;;;;-2.07;100.00;99480.50;6208809;23;20028;-76
2023/01/19 03:39:34;;;;;;;0.10;0.10;;;;;;;-2.10;100.00;99475.56;6202706;23;20050;-76
2023/01/19 03:42:13;;;;;;;0.10;0.10;;;;;;;-2.04;100.00;99482.78;6183460;23;20004;-76
2023/01/19 03:44:41;;;;;;;0.10;0.10;;;;;;;-2.05;100.00;99478.44;6207116;23;20331;-75
2023/01/19 03:47:09;;;;;;;0.10;0.10;;;;;;;-2.04;100.00;99484.63;6207392;23;20740;-76
2023/01/19 03:49:36;;;;;;;0.10;0.10;;;;;;;-2.04;100.00;99480.09;6204990;23;19993;-74
2023/01/19 03:52:03;;;;;;;0.10;0.10;;;;;;;-2.04;100.00;99473.91;6208265;23;20004;-75
2023/01/19 03:54:28;;;;;;;0.10;0.10;;;;;;;-2.06;100.00;99459.88;6210339;23;20014;-73
2023/01/19 03:56:54;;;;;;;0.10;0.10;;;;;;;-2.13;100.00;99466.09;6202918;23;20036;-73
2023/01/19 03:59:20;;;;;;;0.10;0.10;;;;;;;-2.19;100.00;99472.28;6207246;23;20012;-74
2023/01/19 04:01:46;;;;;;;0.00;0.00;;;;;;;-2.22;100.00;99471.84;6180655;23;20238;-75
2023/01/19 04:04:14;;;;;;;0.10;0.10;;;;;;;-2.21;100.00;99466.28;6212388;23;20031;-75
2023/01/19 04:06:39;;;;;;;0.10;0.10;;;;;;;-2.18;100.00;99459.69;6180395;23;20345;-74
2023/01/19 04:09:07;;;;;;;0.00;0.00;;;;;;;-2.14;100.00;99466.28;6209192;23;20009;-75
2023/01/19 04:11:32;;;;;;;0.00;0.00;;;;;;;-2.14;100.00;99463.63;6211089;23;20411;-74
2023/01/19 04:13:57;;;;;;;0.10;0.10;;;;;;;-2.10;100.00;99459.50;6153887;23;20107;-74
2023/01/19 04:16:23;;;;;;;0.00;0.00;;;;;;;-2.08;100.00;99462.78;6159690;23;20324;-74
2023/01/19 04:18:49;;;;;;;0.00;0.00;;;;;;;-2.15;100.00;99461.97;6184789;23;20082;-74
2023/01/19 04:21:15;;;;;;;0.00;0.00;;;;;;;-2.18;100.00;99457.81;6177188;23;20004;-75
2023/01/19 04:23:43;;;;;;;0.00;0.00;;;;;;;-2.25;100.00;99450.84;6208997;23;20087;-74
2023/01/19 04:26:09;;;;;;;0.10;0.10;;;;;;;-2.30;100.00;99454.94;6179842;23;20008;-74
2023/01/19 04:28:35;;;;;;;0.10;0.10;;;;;;;-2.33;100.00;99455.34;6209265;23;20011;-73
2023/01/19 04:31:01;;;;;;;0.10;0.10;;;;;;;-2.41;100.00;99447.53;6206468;23;20339;-74
2023/01/19 04:33:28;;;;;;;0.10;0.10;;;;;;;-2.40;100.00;99443.81;6184020;23;20096;-74
2023/01/19 04:35:54;;;;;;;0.10;0.10;;;;;;;-2.45;100.00;99446.31;6183576;23;20894;-74
2023/01/19 04:38:20;;;;;;;0.00;0.00;;;;;;;-2.49;100.00;99445.06;6151691;23;20020;-74
2023/01/19 04:40:47;;;;;;;0.10;0.10;;;;;;;-2.54;100.00;99439.47;6209312;23;20454;-74
2023/01/19 04:43:13;;;;;;;0.00;0.00;;;;;;;-2.55;100.00;99430.63;6180672;23;20013;-74
2023/01/19 04:45:38;;;;;;;0.10;0.10;;;;;;;-2.54;100.00;99436.81;6209870;23;20382;-74
2023/01/19 04:48:04;;;;;;;0.10;0.10;;;;;;;-2.51;100.00;99436.38;6178639;23;20015;-75
2023/01/19 04:50:30;;;;;;;0.10;0.10;;;;;;;-2.50;100.00;99438.03;6185124;23;20004;-74
2023/01/19 04:52:55;;;;;;;0.10;0.10;;;;;;;-2.51;100.00;99425.69;6181637;23;20027;-74
2023/01/19 04:55:21;;;;;;;0.10;0.10;;;;;;;-2.46;100.00;99439.28;6208185;23;20011;-73
2023/01/19 04:57:47;;;;;;;0.10;0.10;;;;;;;-2.37;100.00;99438.03;6209807;23;20004;-75
2023/01/19 05:00:12;;;;;;;0.00;0.00;;;;;;;-2.36;100.00;99436.22;6153086;23;20031;-74
2023/01/19 05:02:38;;;;;;;0.00;0.00;;;;;;;-2.33;100.00;99428.56;6208433;23;20005;-75
2023/01/19 05:05:04;;;;;;;0.00;0.00;;;;;;;-2.30;100.00;99428.16;6205072;23;20079;-74
2023/01/19 05:07:29;;;;;;;0.10;0.10;;;;;;;-2.24;100.00;99433.75;6211546;23;20004;-75
2023/01/19 05:09:55;;;;;;;0.00;0.00;;;;;;;-2.22;100.00;99439.69;6184116;23;20039;-74
2023/01/19 05:12:20;;;;;;;0.05;0.05;;;;;;;-2.19;100.00;99437.44;6177806;23;20004;-74
2023/01/19 05:14:46;;;;;;;0.00;0.00;;;;;;;-2.16;100.00;99433.50;6158907;23;20009;-74
2023/01/19 05:17:11;;;;;;;0.00;0.00;;;;;;;-2.15;100.00;99424.44;6184050;23;20046;-75
2023/01/19 05:19:37;;;;;;;0.10;0.10;;;;;;;-2.07;100.00;99426.09;6205609;23;20016;-75
2023/01/19 05:22:03;;;;;;;0.00;0.00;;;;;;;-1.99;100.00;99423.19;6185174;23;20008;-75
2023/01/19 05:24:29;;;;;;;0.00;0.00;;;;;;;-1.98;100.00;99425.66;6206811;23;20008;-74
2023/01/19 05:26:55;;;;;;;0.00;0.00;;;;;;;-1.94;100.00;99432.25;6209402;23;20432;-75
2023/01/19 05:29:20;;;;;;;0.00;0.00;;;;;;;-1.91;100.00;99430.19;6203709;23;20092;-76
2023/01/19 05:31:46;;;;;;;0.10;0.10;;;;;;;-1.86;100.00;99433.09;6158429;23;20016;-75
2023/01/19 05:34:13;;;;;;;0.00;0.00;;;;;;;-1.88;100.00;99427.94;6207922;23;20103;-74
2023/01/19 05:36:38;;;;;;;0.00;0.00;;;;;;;-1.88;100.00;99424.41;6208334;23;20023;-74
2023/01/19 05:39:04;;;;;;;0.00;0.00;;;;;;;-1.94;100.00;99424.22;6211387;23;20330;-74
2023/01/19 05:41:29;;;;;;;0.10;0.10;;;;;;;-1.99;100.00;99429.38;6180123;23;20009;-75
2023/01/19 05:43:55;;;;;;;0.10;0.10;;;;;;;-2.01;100.00;99431.44;6210334;23;20043;-74
2023/01/19 05:46:20;;;;;;;0.00;0.00;;;;;;;-2.01;100.00;99428.78;6178675;23;20019;-74
2023/01/19 05:48:46;;;;;;;0.10;0.10;;;;;;;-2.00;100.00;99429.59;6157932;23;20095;-74
2023/01/19 05:51:11;;;;;;;0.00;0.00;;;;;;;-2.07;100.00;99426.94;6208392;23;20016;-74
2023/01/19 05:53:37;;;;;;;0.00;0.00;;;;;;;-2.08;100.00;99430.63;6179679;23;20449;-74
2023/01/19 05:56:05;;;;;;;0.10;0.10;;;;;;;-2.07;100.00;99440.31;6157297;23;20427;-74
2023/01/19 05:58:31;;;;;;;0.10;0.10;;;;;;;-2.14;100.00;99432.28;6205654;23;20001;-74
2023/01/19 06:01:00;;;;;;;0.10;0.10;;;;;;;-2.11;100.00;99431.84;6208361;23;20012;-74
2023/01/19 06:03:25;;;;;;;0.10;0.10;;;;;;;-2.14;100.00;99428.78;6203137;23;20039;-73
2023/01/19 06:05:51;;;;;;;0.10;0.10;;;;;;;-2.12;100.00;99426.72;6182591;23;20091;-73
2023/01/19 06:08:17;;;;;;;0.00;0.00;;;;;;;-2.16;100.00;99423.63;6204975;23;20016;-72
2023/01/19 06:10:42;;;;;;;0.10;0.10;;;;;;;-2.11;100.00;99436.41;6207259;23;20094;-73
2023/01/19 06:13:09;;;;;;;0.00;0.00;;;;;;;-2.13;100.00;99425.09;6181758;23;20011;-73
2023/01/19 06:15:36;;;;;;;0.00;0.00;;;;;;;-2.02;100.00;99429.78;6203755;23;20008;-73
2023/01/19 06:18:01;;;;;;;0.00;0.00;;;;;;;-1.98;100.00;99414.13;6208082;23;20008;-73
2023/01/19 06:20:27;;;;;;;0.10;0.10;;;;;;;-1.87;100.00;99412.66;6207161;23;20065;-73
2023/01/19 06:22:55;;;;;;;0.10;0.10;;;;;;;-1.82;100.00;99412.88;6178112;23;20012;-73
2023/01/19 06:25:21;;;;;;;0.00;0.00;;;;;;;-1.75;100.00;99419.03;6207719;23;20008;-73
2023/01/19 06:27:46;;;;;;;0.10;0.10;;;;;;;-1.74;100.00;99418.00;6204459;23;20096;-72
2023/01/19 06:30:12;;;;;;;0.10;0.10;;;;;;;-1.82;100.00;99410.19;6208773;23;20359;-73
2023/01/19 06:32:38;;;;;;;0.00;0.00;;;;;;;-1.80;100.00;99416.97;6178767;23;20007;-74
2023/01/19 06:35:04;;;;;;;0.00;0.00;;;;;;;-1.81;100.00;99419.84;6182309;23;20025;-73
2023/01/19 06:37:30;;;;;;;0.10;0.10;;;;;;;-1.82;100.00;99415.56;6183244;23;20012;-73
2023/01/19 06:39:55;;;;;;;0.00;0.00;;;;;;;-1.83;100.00;99409.34;6177144;23;20195;-74
2023/01/19 06:42:21;;;;;;;0.10;0.10;;;;;;;-1.86;100.00;99414.31;6158518;23;20016;-74
2023/01/19 06:44:46;;;;;;;0.10;0.10;;;;;;;-1.85;100.00;99413.28;6203007;23;20012;-73
2023/01/19 06:47:13;;;;;;;0.10;0.10;;;;;;;-1.82;100.00;99419.03;6207793;23;20446;-74
2023/01/19 06:49:39;;;;;;;0.10;0.10;;;;;;;-1.83;100.00;99413.91;6178271;23;20013;-74
2023/01/19 06:52:05;;;;;;;0.00;0.00;;;;;;;-1.83;100.00;99414.72;6207963;23;20051;-74
2023/01/19 06:54:30;;;;;;;0.10;0.10;;;;;;;-1.77;100.00;99431.81;6181903;23;20014;-74
2023/01/19 06:56:55;;;;;;;0.00;0.00;;;;;;;-1.77;100.00;99431.81;6177632;23;20043;-75
2023/01/19 06:59:22;;;;;;;0.10;0.10;;;;;;;-1.75;100.00;99429.75;6184329;23;20008;-75
2023/01/19 07:01:47;;;;;;;0.10;0.10;;;;;;;-1.75;100.00;99429.75;6202776;23;20072;-74
2023/01/19 07:04:14;;;;;;;0.10;0.10;;;;;;;-1.67;100.00;99426.84;6209892;23;20008;-75
2023/01/19 07:06:40;;;;;;;0.00;0.00;;;;;;;-1.65;100.00;99424.78;6204079;23;20088;-75
2023/01/19 07:09:09;;;;;;;0.10;0.10;;;;;;;-1.62;100.00;99429.72;6182460;23;20064;-74
2023/01/19 07:11:35;;;;;;;0.00;0.00;;;;;;;-1.53;100.00;99437.53;6209524;23;20048;-74
2023/01/19 07:14:00;;;;;;;0.00;0.00;;;;;;;-1.53;100.00;99449.09;6176856;23;20009;-74
2023/01/19 07:16:26;;;;;;;0.00;0.00;;;;;;;-1.59;100.00;99445.38;6207883;23;20074;-74
2023/01/19 07:18:51;;;;;;;0.00;0.00;;;;;;;-1.61;100.00;99442.09;6210871;23;20000;-75
2023/01/19 07:21:18;;;;;;;0.10;0.10;;;;;;;-1.65;100.00;99451.59;6209540;23;20088;-76
2023/01/19 07:23:43;;;;;;;0.00;0.00;;;;;;;-1.68;100.00;99451.19;6205863;23;20000;-74
2023/01/19 07:26:09;;;;;;;0.10;0.10;;;;;;;-1.70;100.00;99454.06;6209454;23;20011;-75
2023/01/19 07:28:35;;;;;;;0.00;0.00;;;;;;;-1.72;100.00;99461.50;6201476;23;20011;-76
2023/01/19 07:31:01;;;;;;;0.00;0.00;;;;;;;-1.79;100.00;99450.78;6158635;23;20015;-76
2023/01/19 07:33:28;;;;;;;0.00;0.00;;;;;;;-1.79;100.00;99458.00;6206758;23;20013;-73
2023/01/19 07:35:53;;;;;;;0.10;0.10;;;;;;;-1.82;100.00;99455.75;6184159;23;20005;-76
2023/01/19 07:38:20;;;;;;;0.10;0.10;;;;;;;-1.79;100.00;99449.97;6208000;23;20008;-76
2023/01/19 07:40:45;;;;;;;0.00;0.00;;;;;;;-1.79;100.00;99460.69;6202129;23;20498;-75
2023/01/19 07:43:12;;;;;;;0.00;0.00;;;;;;;-1.81;100.00;99457.38;6208100;23;20027;-75
2023/01/19 07:45:37;;;;;;;0.00;0.00;;;;;;;-1.82;100.00;99450.41;6178548;23;20803;-74
2023/01/19 07:48:03;;;;;;;0.10;0.10;;;;;;;-1.82;100.00;99450.41;6205968;23;20008;-74
2023/01/19 07:50:29;;;;;;;0.00;0.00;;;;;;;-1.83;100.00;99449.56;6204306;23;20479;-77
2023/01/19 07:52:56;;;;;;;0.00;0.00;;;;;;;-1.88;100.00;99453.88;6182964;23;20054;-80
2023/01/19 07:55:24;;;;;;;0.10;0.10;;;;;;;-1.90;100.00;99458.63;6207482;23;20000;-78
2023/01/19 07:57:50;;;;;;;0.00;0.00;;;;;;;-1.88;100.00;99456.56;6206698;23;20004;-79
2023/01/19 08:00:23;;;;;;;0.00;0.00;;;;;;;-1.95;100.00;99448.56;6185073;23;20071;-78
2023/01/19 08:02:50;;;;;;;0.00;0.00;;;;;;;-1.92;100.00;99466.06;6208640;23;20000;-77
2023/01/19 08:05:19;;;;;;;0.00;0.00;;;;;;;-1.95;100.00;99457.41;6209211;23;20062;-78
2023/01/19 08:07:46;;;;;;;0.10;0.10;;;;;;;-1.92;100.00;99444.63;6206497;23;20000;-80
2023/01/19 08:10:13;;;;;;;0.00;0.00;;;;;;;-1.79;100.00;99444.63;6211191;23;20009;-76
2023/01/19 08:12:39;;;;;;;0.10;0.10;;;;;;;-1.67;100.00;99448.28;6208599;23;20430;-75
2023/01/19 08:15:17;;;;;;;0.10;0.10;;;;;;;-1.59;100.00;99449.94;6209008;23;20004;-75
2023/01/19 08:17:45;;;;;;;0.10;0.10;;;;;;;-1.45;100.00;99461.44;6181705;23;20005;-75
2023/01/19 08:20:11;;;;;;;0.00;0.00;;;;;;;-1.40;100.00;99453.59;6184798;23;20004;-75
2023/01/19 08:22:37;;;;;;;0.00;0.00;;;;;;;-1.41;100.00;99451.94;6158089;23;20004;-76
2023/01/19 08:25:03;;;;;;;0.00;0.00;;;;;;;-1.35;100.00;99461.81;6186357;23;20008;-76
2023/01/19 08:27:30;;;;;;;0.10;0.10;;;;;;;-1.27;100.00;99472.31;6205875;23;20001;-76
2023/01/19 08:29:57;;;;;;;0.10;0.10;;;;;;;-1.23;100.00;99470.88;6183099;23;20009;-76
2023/01/19 08:32:23;;;;;;;0.10;0.10;;;;;;;-1.25;100.00;99478.28;6206626;23;20063;-74
2023/01/19 08:34:48;;;;;;;0.00;0.00;;;;;;;-1.28;100.00;99484.06;6201970;23;20024;-75
2023/01/19 08:37:21;;;;;;;0.00;0.00;;;;;;;-1.32;100.00;99477.47;6183442;23;20019;-76
2023/01/19 08:39:53;;;;;;;0.00;0.00;;;;;;;-1.34;100.00;99468.84;6204920;23;20015;-75
2023/01/19 08:42:19;;;;;;;0.00;0.00;;;;;;;-1.26;100.00;99473.13;6184886;23;20309;-76
2023/01/19 08:44:44;;;;;;;0.10;0.10;;;;;;;-1.09;100.00;99481.53;6203347;23;20008;-76
2023/01/19 08:47:10;;;;;;;0.00;0.00;;;;;;;-0.89;100.00;99482.28;6157792;23;20005;-75
2023/01/19 08:49:35;;;;;;;0.00;0.00;;;;;;;-0.74;100.00;99468.56;6204680;23;20019;-77
2023/01/19 08:52:01;;;;;;;0.10;0.10;;;;;;;-0.54;100.00;99473.81;6207605;23;20011;-75
2023/01/19 08:54:27;;;;;;;0.10;0.10;;;;;;;-0.41;100.00;99466.69;6202708;23;20624;-76
2023/01/19 08:56:52;;;;;;;0.00;0.00;;;;;;;-0.30;100.00;99476.75;6176845;23;20095;-75
2023/01/19 08:59:18;;;;;;;0.10;0.10;;;;;;;-0.27;100.00;99467.44;6208529;23;20107;-77
2023/01/19 09:01:43;;;;;;;0.00;0.00;;;;;;;-0.14;100.00;99482.63;6180243;23;20439;-75
2023/01/19 09:04:09;;;;;;;0.00;0.00;;;;;;;-0.12;100.00;99477.84;6210357;23;20087;-76
2023/01/19 09:06:34;;;;;;;0.00;0.00;;;;;;;-0.20;100.00;99466.34;6206798;23;20495;-76
2023/01/19 09:09:00;;;;;;;0.10;0.10;;;;;;;-0.12;100.00;99481.34;6182275;23;20022;-76
2023/01/19 09:11:26;;;;;;;0.00;0.00;;;;;;;-0.05;100.00;99481.31;6206037;23;20091;-76
2023/01/19 09:13:51;;;;;;;0.10;0.10;;;;;;;-0.03;100.00;99484.59;6180629;23;20011;-75
2023/01/19 09:16:17;;;;;;;0.10;0.10;;;;;;;-0.02;100.00;99487.06;6207241;23;20008;-76
2023/01/19 09:18:45;;;;;;;0.00;0.00;;;;;;;-0.02;100.00;99480.88;6208608;23;20416;-76
2023/01/19 09:21:10;;;;;;;0.00;0.00;;;;;;;0.05;100.00;99484.34;6179275;23;20016;-76
2023/01/19 09:23:36;;;;;;;0.10;0.10;;;;;;;0.23;100.00;99488.91;6209438;23;20128;-76
2023/01/19 09:26:08;;;;;;;0.10;0.10;;;;;;;0.25;100.00;99491.38;6205104;23;20054;-76
2023/01/19 09:28:33;;;;;;;0.00;0.00;;;;;;;0.30;100.00;99488.88;6209637;23;20336;-75
2023/01/19 09:31:03;;;;;;;0.10;0.10;;;;;;;0.67;100.00;99510.41;6204952;23;20083;-75
2023/01/19 09:33:29;;;;;;;0.10;0.10;;;;;;;1.96;100.00;99484.25;6182351;23;20044;-77
2023/01/19 09:35:55;;;;;;;0.10;0.10;;;;;;;4.24;100.00;99497.44;6208228;23;20335;-76
2023/01/19 09:38:22;;;;;;;0.00;0.00;;;;;;;6.11;100.00;99508.34;6206383;23;20012;-77
2023/01/19 09:40:53;;;;;;;0.10;0.10;;;;;;;7.82;100.00;99515.44;6210009;23;19997;-77
2023/01/19 09:43:40;;;;;;;0.10;0.10;;;;;;;9.53;100.00;99528.50;6205449;23;20003;-77
2023/01/19 09:46:14;;;;;;;0.10;0.10;;;;;;;11.25;100.00;99522.13;6209353;23;20007;-77
2023/01/19 09:48:49;;;;;;;0.10;0.10;;;;;;;13.12;100.00;99531.84;6209489;23;20001;-77
2023/01/19 09:51:31;;;;;;;0.00;0.00;;;;;;;14.63;100.00;99529.00;6206257;23;20011;-76
2023/01/19 09:54:00;;;;;;;0.00;0.00;;;;;;;16.90;100.00;99551.41;6209365;23;20095;-76
2023/01/19 09:56:36;;;;;;;0.10;0.10;;;;;;;18.40;100.00;99543.00;6204687;23;20278;-77
2023/01/19 09:59:19;;;;;;;0.00;0.00;;;;;;;19.63;90.71;99542.41;6186817;23;20000;-76
2023/01/19 10:02:03;;;;;;;0.00;0.00;;;;;;;20.69;88.09;99559.81;6202979;23;20100;-76
2023/01/19 10:04:52;;;;;;;0.00;0.00;;;;;;;21.60;87.28;99546.22;6208471;23;20012;-76
2023/01/19 10:07:51;;;;;;;0.00;0.00;;;;;;;22.49;85.97;99541.75;6207468;23;20019;-77
2023/01/19 10:10:27;;;;;;;0.00;0.00;;;;;;;23.44;84.79;99556.19;6206951;23;20008;-76
2023/01/19 10:12:58;;;;;;;0.10;0.10;;;;;;;24.22;83.00;99550.13;6183423;23;20091;-77
2023/01/19 10:16:00;;;;;;;0.00;0.00;;;;;;;25.11;81.08;99559.06;6208452;23;20505;-76
2023/01/19 10:18:47;;;;;;;0.10;0.10;;;;;;;25.81;79.43;99557.22;6203662;23;20062;-78
2023/01/19 10:21:22;;;;;;;0.00;0.00;;;;;;;26.54;77.45;99559.16;6196822;23;20135;-77
2023/01/19 10:24:02;;;;;;;0.00;0.00;;;;;;;26.86;77.09;99564.09;6204078;23;20012;-77
2023/01/19 10:26:37;;;;;;;0.00;0.00;;;;;;;27.20;77.15;99554.50;6204682;23;20020;-76
2023/01/19 10:29:36;;;;;;;0.00;0.00;;;;;;;27.07;78.11;99546.50;6207988;23;20035;-76
2023/01/19 10:32:24;;;;;;;0.00;0.00;;;;;;;27.84;77.98;99557.25;6201710;23;20005;-77
2023/01/19 10:34:58;;;;;;;0.00;0.00;;;;;;;28.44;76.38;99562.31;6207050;23;20023;-77
2023/01/19 10:37:29;;;;;;;0.00;0.00;;;;;;;28.94;75.76;99556.41;6203336;23;20087;-76
2023/01/19 10:40:09;;;;;;;0.00;0.00;;;;;;;29.40;74.74;99554.47;6209281;23;20427;-76
2023/01/19 10:42:35;;;;;;;0.00;0.00;;;;;;;29.92;73.82;99562.00;6203449;23;20008;-76
2023/01/19 10:45:02;;;;;;;0.00;0.00;;;;;;;30.07;74.11;99562.66;6206671;23;20000;-75
2023/01/19 10:47:34;;;;;;;0.03;0.03;;;;;;;30.51;74.39;99565.78;6203767;23;20332;-77
2023/01/19 10:50:27;;;;;;;0.00;0.00;;;;;;;30.90;74.31;99562.41;6208702;23;20008;-77
2023/01/19 10:52:56;;;;;;;0.00;0.00;;;;;;;31.36;74.20;99560.06;6207005;23;20009;-77
2023/01/19 10:55:36;;;;;;;0.00;0.00;;;;;;;31.90;72.90;99556.28;6183537;23;20031;-76
2023/01/19 10:58:02;;;;;;;0.00;0.00;;;;;;;32.09;73.30;99554.69;6210831;23;20032;-76
2023/01/19 11:00:28;;;;;;;0.00;0.00;;;;;;;32.29;72.66;99560.38;6208596;23;20004;-76
2023/01/19 11:02:53;;;;;;;0.00;0.00;;;;;;;32.22;72.30;99556.91;6206866;23;20711;-77
2023/01/19 11:05:28;;;;;;;0.10;0.10;;;;;;;31.91;75.38;99555.06;6208643;23;20008;-76
2023/01/19 11:07:55;;;;;;;0.00;0.00;;;;;;;32.28;75.01;99555.16;6204459;23;20066;-76
2023/01/19 11:10:23;;;;;;;0.03;0.03;;;;;;;33.08;73.37;99559.88;6160819;23;20067;-75
2023/01/19 11:13:02;;;;;;;0.00;0.00;;;;;;;33.06;73.30;99551.81;6208213;23;20008;-76
2023/01/19 11:15:42;;;;;;;0.00;0.00;;;;;;;33.50;72.29;99552.34;6210045;23;20100;-76
2023/01/19 11:18:22;;;;;;;0.00;0.00;;;;;;;33.14;72.82;99536.22;6211849;23;20004;-76
2023/01/19 11:20:53;;;;;;;0.00;0.00;;;;;;;33.06;72.30;99543.31;6211108;23;20748;-76
2023/01/19 11:23:27;;;;;;;0.00;0.00;;;;;;;31.88;70.86;99550.28;6210679;23;20001;-76
2023/01/19 11:25:55;;;;;;;0.00;0.00;;;;;;;30.72;81.05;99554.16;6210072;23;20008;-76
2023/01/19 11:28:50;;;;;;;0.00;0.00;;;;;;;32.23;78.64;99541.53;6208519;23;20119;-75
2023/01/19 11:31:28;;;;;;;0.00;0.00;;;;;;;31.32;75.99;99551.66;6207528;23;20028;-76
2023/01/19 11:33:56;;;;;;;0.00;0.00;;;;;;;29.59;81.93;99547.44;6212927;23;20024;-76
2023/01/19 11:36:26;;;;;;;0.00;0.00;;;;;;;27.65;86.75;99543.66;6210350;23;20666;-77
2023/01/19 11:38:57;;;;;;;0.00;0.00;;;;;;;27.58;97.47;99544.47;6214123;23;20005;-77
2023/01/19 11:41:29;;;;;;;0.00;0.00;;;;;;;30.32;88.20;99551.06;6207593;23;20332;-75
2023/01/19 11:44:20;;;;;;;0.00;0.00;;;;;;;32.87;77.94;99545.78;6211320;23;19992;-76
2023/01/19 11:46:52;;;;;;;0.00;0.00;;;;;;;35.04;68.75;99557.63;6208132;23;20004;-76
2023/01/19 11:49:29;;;;;;;0.00;0.00;;;;;;;33.74;70.69;99554.97;6184037;23;20091;-76